KOXI

Starke County Airport

Knox, Indiana, USA
METAR KOXI 221655Z AUTO 06006KT 10SM OVC010 20/18 A2972 RMK AO1
Observed Flight Rules
Jun-22 @ 16:55 UTC (13 minutes ago) Marginal Visual Flight Rules
Wind Visibility Clouds
60° at 6 knots 10 miles
  • Overcast at 1,000' AGL
Temperatures Readings
Current 20°C / 68°F
Dewpoint 18°C / 64°F
Humidity 88%
Altimeter 29.72" Hg
Pressure 1006 hPa
Elevation 209
METAR KOXI 221655Z AUTO 06006KT 10SM OVC010 20/18 A2972 RMK AO1
Observed Flight Rules
Jun-22 @ 16:55 UTC
(13 minutes ago)
MVFR
Wind Visibility
60° at 6 knots 10 miles
Clouds
  • Overcast at 1,000' AGL
Temperature Dewpoint
20°C / 68°F 18°C / 64°F
Humidity Altimeter Pressure
88% 29.72" Hg 1006 hPa